sensor_id;sensor_type;location;lat;lon;timestamp;P1;durP1;ratioP1;P2;durP2;ratioP2
40601;SDS011;26310;50.278;19.032;2023-06-04T00:03:01;3.20;;;1.77;;
40601;SDS011;26310;50.278;19.032;2023-06-04T00:08:04;2.50;;;1.67;;
40601;SDS011;26310;50.278;19.032;2023-06-04T00:13:07;2.50;;;1.30;;
40601;SDS011;26310;50.278;19.032;2023-06-04T00:18:10;2.50;;;1.53;;
40601;SDS011;26310;50.278;19.032;2023-06-04T00:23:15;2.07;;;1.47;;
40601;SDS011;26310;50.278;19.032;2023-06-04T00:28:18;2.53;;;1.60;;
40601;SDS011;26310;50.278;19.032;2023-06-04T00:33:21;5.00;;;1.23;;
40601;SDS011;26310;50.278;19.032;2023-06-04T00:38:24;2.70;;;1.43;;
40601;SDS011;26310;50.278;19.032;2023-06-04T00:43:27;2.13;;;1.30;;
40601;SDS011;26310;50.278;19.032;2023-06-04T00:48:33;2.07;;;1.67;;
40601;SDS011;26310;50.278;19.032;2023-06-04T00:53:38;1.60;;;1.20;;
40601;SDS011;26310;50.278;19.032;2023-06-04T00:58:41;2.07;;;1.23;;
40601;SDS011;26310;50.278;19.032;2023-06-04T01:03:47;1.80;;;1.30;;
40601;SDS011;26310;50.278;19.032;2023-06-04T01:08:53;3.13;;;1.57;;
40601;SDS011;26310;50.278;19.032;2023-06-04T01:13:56;1.40;;;0.90;;
40601;SDS011;26310;50.278;19.032;2023-06-04T01:19:00;4.73;;;1.27;;
40601;SDS011;26310;50.278;19.032;2023-06-04T01:24:04;2.47;;;1.60;;
40601;SDS011;26310;50.278;19.032;2023-06-04T01:29:09;1.83;;;1.07;;
40601;SDS011;26310;50.278;19.032;2023-06-04T01:34:12;4.30;;;1.20;;
40601;SDS011;26310;50.278;19.032;2023-06-04T01:39:15;2.73;;;1.20;;
40601;SDS011;26310;50.278;19.032;2023-06-04T01:44:18;4.17;;;1.63;;
40601;SDS011;26310;50.278;19.032;2023-06-04T01:49:21;2.80;;;1.60;;
40601;SDS011;26310;50.278;19.032;2023-06-04T01:54:24;2.17;;;1.30;;
40601;SDS011;26310;50.278;19.032;2023-06-04T01:59:27;1.63;;;1.20;;
40601;SDS011;26310;50.278;19.032;2023-06-04T02:04:30;1.73;;;1.30;;
40601;SDS011;26310;50.278;19.032;2023-06-04T02:09:33;1.50;;;1.27;;
40601;SDS011;26310;50.278;19.032;2023-06-04T02:14:36;2.17;;;1.60;;
40601;SDS011;26310;50.278;19.032;2023-06-04T02:19:40;1.80;;;1.40;;
40601;SDS011;26310;50.278;19.032;2023-06-04T02:24:52;3.10;;;1.10;;
40601;SDS011;26310;50.278;19.032;2023-06-04T02:29:55;1.87;;;1.10;;
40601;SDS011;26310;50.278;19.032;2023-06-04T02:34:58;1.53;;;1.23;;
40601;SDS011;26310;50.278;19.032;2023-06-04T02:40:02;2.43;;;1.20;;
40601;SDS011;26310;50.278;19.032;2023-06-04T02:45:06;2.33;;;1.57;;
40601;SDS011;26310;50.278;19.032;2023-06-04T02:50:09;3.43;;;1.40;;
40601;SDS011;26310;50.278;19.032;2023-06-04T02:55:13;1.50;;;1.30;;
40601;SDS011;26310;50.278;19.032;2023-06-04T03:00:16;2.00;;;1.50;;
40601;SDS011;26310;50.278;19.032;2023-06-04T03:05:19;2.97;;;1.93;;
40601;SDS011;26310;50.278;19.032;2023-06-04T03:10:25;2.50;;;1.53;;
40601;SDS011;26310;50.278;19.032;2023-06-04T03:15:28;1.63;;;1.50;;
40601;SDS011;26310;50.278;19.032;2023-06-04T03:20:31;1.73;;;1.20;;
40601;SDS011;26310;50.278;19.032;2023-06-04T03:25:40;10.03;;;1.73;;
40601;SDS011;26310;50.278;19.032;2023-06-04T03:30:43;1.37;;;1.13;;
40601;SDS011;26310;50.278;19.032;2023-06-04T03:35:46;3.07;;;1.20;;
40601;SDS011;26310;50.278;19.032;2023-06-04T03:40:50;2.80;;;1.20;;
40601;SDS011;26310;50.278;19.032;2023-06-04T03:45:54;1.80;;;1.03;;
40601;SDS011;26310;50.278;19.032;2023-06-04T03:50:57;2.07;;;1.40;;
40601;SDS011;26310;50.278;19.032;2023-06-04T03:56:00;2.70;;;1.83;;
40601;SDS011;26310;50.278;19.032;2023-06-04T04:01:03;2.80;;;1.40;;
40601;SDS011;26310;50.278;19.032;2023-06-04T04:06:07;1.77;;;1.33;;
40601;SDS011;26310;50.278;19.032;2023-06-04T04:11:12;2.07;;;1.57;;
40601;SDS011;26310;50.278;19.032;2023-06-04T04:16:18;5.47;;;1.53;;
40601;SDS011;26310;50.278;19.032;2023-06-04T04:21:22;2.63;;;1.30;;
40601;SDS011;26310;50.278;19.032;2023-06-04T04:26:25;1.67;;;1.10;;
40601;SDS011;26310;50.278;19.032;2023-06-04T04:31:29;4.87;;;1.83;;
40601;SDS011;26310;50.278;19.032;2023-06-04T04:36:33;2.77;;;1.30;;
40601;SDS011;26310;50.278;19.032;2023-06-04T04:41:38;1.97;;;1.43;;
40601;SDS011;26310;50.278;19.032;2023-06-04T04:46:41;2.33;;;1.53;;
40601;SDS011;26310;50.278;19.032;2023-06-04T04:51:44;3.33;;;1.27;;
40601;SDS011;26310;50.278;19.032;2023-06-04T04:56:48;2.53;;;1.20;;
40601;SDS011;26310;50.278;19.032;2023-06-04T05:02:11;3.67;;;1.30;;
40601;SDS011;26310;50.278;19.032;2023-06-04T05:07:14;2.70;;;1.53;;
40601;SDS011;26310;50.278;19.032;2023-06-04T05:12:17;3.33;;;1.20;;
40601;SDS011;26310;50.278;19.032;2023-06-04T05:17:20;1.87;;;1.17;;
40601;SDS011;26310;50.278;19.032;2023-06-04T05:22:31;2.70;;;1.20;;
40601;SDS011;26310;50.278;19.032;2023-06-04T05:27:35;3.33;;;1.13;;
40601;SDS011;26310;50.278;19.032;2023-06-04T05:32:38;3.30;;;1.40;;
40601;SDS011;26310;50.278;19.032;2023-06-04T05:37:43;2.27;;;1.27;;
40601;SDS011;26310;50.278;19.032;2023-06-04T05:42:47;1.97;;;1.30;;
40601;SDS011;26310;50.278;19.032;2023-06-04T05:47:53;1.30;;;0.87;;
40601;SDS011;26310;50.278;19.032;2023-06-04T05:52:57;1.90;;;1.20;;
40601;SDS011;26310;50.278;19.032;2023-06-04T05:57:59;1.77;;;1.30;;
40601;SDS011;26310;50.278;19.032;2023-06-04T06:03:02;2.17;;;1.40;;
40601;SDS011;26310;50.278;19.032;2023-06-04T06:08:08;2.13;;;1.13;;
40601;SDS011;26310;50.278;19.032;2023-06-04T06:13:12;4.37;;;1.40;;
40601;SDS011;26310;50.278;19.032;2023-06-04T06:18:15;2.03;;;1.40;;
40601;SDS011;26310;50.278;19.032;2023-06-04T06:23:18;3.53;;;1.63;;
40601;SDS011;26310;50.278;19.032;2023-06-04T06:28:23;5.23;;;1.23;;
40601;SDS011;26310;50.278;19.032;2023-06-04T06:33:27;1.67;;;1.30;;
40601;SDS011;26310;50.278;19.032;2023-06-04T06:38:30;1.47;;;1.10;;
40601;SDS011;26310;50.278;19.032;2023-06-04T06:43:33;4.17;;;1.20;;
40601;SDS011;26310;50.278;19.032;2023-06-04T06:48:36;2.60;;;1.10;;
40601;SDS011;26310;50.278;19.032;2023-06-04T06:53:39;1.30;;;0.93;;
40601;SDS011;26310;50.278;19.032;2023-06-04T06:58:46;2.30;;;1.47;;
40601;SDS011;26310;50.278;19.032;2023-06-04T07:03:49;1.20;;;1.07;;
40601;SDS011;26310;50.278;19.032;2023-06-04T07:08:53;1.33;;;0.90;;
40601;SDS011;26310;50.278;19.032;2023-06-04T07:13:56;5.77;;;1.33;;
40601;SDS011;26310;50.278;19.032;2023-06-04T07:19:00;1.57;;;0.90;;
40601;SDS011;26310;50.278;19.032;2023-06-04T07:24:04;1.80;;;1.13;;
40601;SDS011;26310;50.278;19.032;2023-06-04T07:29:07;1.37;;;0.93;;
40601;SDS011;26310;50.278;19.032;2023-06-04T07:34:10;2.53;;;1.20;;
40601;SDS011;26310;50.278;19.032;2023-06-04T07:39:13;2.60;;;1.10;;
40601;SDS011;26310;50.278;19.032;2023-06-04T07:44:16;1.97;;;0.80;;
40601;SDS011;26310;50.278;19.032;2023-06-04T07:49:19;1.40;;;0.90;;
40601;SDS011;26310;50.278;19.032;2023-06-04T07:54:22;2.95;;;1.15;;
40601;SDS011;26310;50.278;19.032;2023-06-04T07:59:26;2.17;;;0.90;;
40601;SDS011;26310;50.278;19.032;2023-06-04T08:04:31;1.73;;;1.10;;
40601;SDS011;26310;50.278;19.032;2023-06-04T08:09:35;3.63;;;1.20;;
40601;SDS011;26310;50.278;19.032;2023-06-04T08:14:39;1.40;;;1.00;;
40601;SDS011;26310;50.278;19.032;2023-06-04T08:19:42;1.87;;;1.07;;
40601;SDS011;26310;50.278;19.032;2023-06-04T08:24:46;4.03;;;1.15;;
40601;SDS011;26310;50.278;19.032;2023-06-04T08:29:49;1.98;;;1.42;;
40601;SDS011;26310;50.278;19.032;2023-06-04T08:34:54;1.40;;;1.08;;
40601;SDS011;26310;50.278;19.032;2023-06-04T08:39:57;1.63;;;0.95;;
40601;SDS011;26310;50.278;19.032;2023-06-04T08:45:00;3.38;;;1.13;;
40601;SDS011;26310;50.278;19.032;2023-06-04T08:50:04;2.72;;;1.00;;
40601;SDS011;26310;50.278;19.032;2023-06-04T08:55:08;1.55;;;0.95;;
40601;SDS011;26310;50.278;19.032;2023-06-04T09:00:14;1.73;;;1.17;;
40601;SDS011;26310;50.278;19.032;2023-06-04T09:05:19;2.55;;;1.08;;
40601;SDS011;26310;50.278;19.032;2023-06-04T09:10:24;2.85;;;1.27;;
40601;SDS011;26310;50.278;19.032;2023-06-04T09:15:28;1.00;;;0.80;;
40601;SDS011;26310;50.278;19.032;2023-06-04T09:20:32;1.67;;;0.95;;
40601;SDS011;26310;50.278;19.032;2023-06-04T09:25:35;1.40;;;1.02;;
40601;SDS011;26310;50.278;19.032;2023-06-04T09:30:52;1.60;;;1.00;;
40601;SDS011;26310;50.278;19.032;2023-06-04T09:35:56;1.42;;;0.90;;
40601;SDS011;26310;50.278;19.032;2023-06-04T09:41:01;1.20;;;0.90;;
40601;SDS011;26310;50.278;19.032;2023-06-04T09:46:16;2.10;;;1.00;;
40601;SDS011;26310;50.278;19.032;2023-06-04T09:51:20;2.28;;;1.00;;
40601;SDS011;26310;50.278;19.032;2023-06-04T09:56:23;1.20;;;0.90;;
40601;SDS011;26310;50.278;19.032;2023-06-04T10:01:29;3.22;;;1.30;;
40601;SDS011;26310;50.278;19.032;2023-06-04T10:06:32;2.03;;;1.17;;
40601;SDS011;26310;50.278;19.032;2023-06-04T10:11:39;2.00;;;1.25;;
40601;SDS011;26310;50.278;19.032;2023-06-04T10:16:44;1.92;;;1.10;;
40601;SDS011;26310;50.278;19.032;2023-06-04T10:21:48;4.72;;;1.23;;
40601;SDS011;26310;50.278;19.032;2023-06-04T10:26:58;1.90;;;1.50;;
40601;SDS011;26310;50.278;19.032;2023-06-04T10:32:01;1.30;;;1.00;;
40601;SDS011;26310;50.278;19.032;2023-06-04T10:37:04;1.60;;;1.00;;
40601;SDS011;26310;50.278;19.032;2023-06-04T10:42:07;1.02;;;0.75;;
40601;SDS011;26310;50.278;19.032;2023-06-04T10:47:23;2.22;;;1.52;;
40601;SDS011;26310;50.278;19.032;2023-06-04T10:52:27;2.30;;;1.23;;
40601;SDS011;26310;50.278;19.032;2023-06-04T10:57:31;4.45;;;1.10;;
40601;SDS011;26310;50.278;19.032;2023-06-04T11:02:34;1.00;;;0.80;;
40601;SDS011;26310;50.278;19.032;2023-06-04T11:07:47;3.63;;;1.30;;
40601;SDS011;26310;50.278;19.032;2023-06-04T11:12:51;3.80;;;2.30;;
40601;SDS011;26310;50.278;19.032;2023-06-04T11:17:55;2.67;;;1.30;;
40601;SDS011;26310;50.278;19.032;2023-06-04T11:23:01;2.85;;;1.23;;
40601;SDS011;26310;50.278;19.032;2023-06-04T11:28:05;2.10;;;1.40;;
40601;SDS011;26310;50.278;19.032;2023-06-04T11:33:08;1.55;;;1.13;;
40601;SDS011;26310;50.278;19.032;2023-06-04T11:38:11;2.28;;;1.45;;
40601;SDS011;26310;50.278;19.032;2023-06-04T11:43:14;1.98;;;1.30;;
40601;SDS011;26310;50.278;19.032;2023-06-04T11:48:17;2.03;;;1.13;;
40601;SDS011;26310;50.278;19.032;2023-06-04T11:53:21;1.45;;;1.35;;
40601;SDS011;26310;50.278;19.032;2023-06-04T11:58:24;2.92;;;1.50;;
40601;SDS011;26310;50.278;19.032;2023-06-04T12:03:34;2.88;;;1.60;;
40601;SDS011;26310;50.278;19.032;2023-06-04T12:08:49;1.25;;;0.90;;
40601;SDS011;26310;50.278;19.032;2023-06-04T12:13:56;1.95;;;1.13;;
40601;SDS011;26310;50.278;19.032;2023-06-04T12:19:07;1.45;;;1.30;;
40601;SDS011;26310;50.278;19.032;2023-06-04T12:24:12;1.63;;;1.10;;
40601;SDS011;26310;50.278;19.032;2023-06-04T12:29:17;1.55;;;1.23;;
40601;SDS011;26310;50.278;19.032;2023-06-04T12:34:22;1.40;;;1.30;;
40601;SDS011;26310;50.278;19.032;2023-06-04T12:39:25;6.32;;;1.13;;
40601;SDS011;26310;50.278;19.032;2023-06-04T12:44:28;1.45;;;1.10;;
40601;SDS011;26310;50.278;19.032;2023-06-04T12:49:31;2.20;;;1.33;;
40601;SDS011;26310;50.278;19.032;2023-06-04T12:54:34;2.22;;;1.27;;
40601;SDS011;26310;50.278;19.032;2023-06-04T12:59:37;3.83;;;1.73;;
40601;SDS011;26310;50.278;19.032;2023-06-04T13:04:40;2.70;;;1.30;;
40601;SDS011;26310;50.278;19.032;2023-06-04T13:09:46;3.03;;;1.40;;
40601;SDS011;26310;50.278;19.032;2023-06-04T13:14:49;2.28;;;1.20;;
40601;SDS011;26310;50.278;19.032;2023-06-04T13:19:53;1.75;;;1.17;;
40601;SDS011;26310;50.278;19.032;2023-06-04T13:24:55;3.17;;;1.35;;
40601;SDS011;26310;50.278;19.032;2023-06-04T13:29:59;2.28;;;1.00;;
40601;SDS011;26310;50.278;19.032;2023-06-04T13:35:02;1.63;;;1.20;;
40601;SDS011;26310;50.278;19.032;2023-06-04T13:40:05;3.75;;;1.50;;
40601;SDS011;26310;50.278;19.032;2023-06-04T13:45:09;1.77;;;1.25;;
40601;SDS011;26310;50.278;19.032;2023-06-04T13:50:12;3.22;;;1.25;;
40601;SDS011;26310;50.278;19.032;2023-06-04T13:55:15;2.40;;;1.25;;
40601;SDS011;26310;50.278;19.032;2023-06-04T14:00:18;1.52;;;1.02;;
40601;SDS011;26310;50.278;19.032;2023-06-04T14:05:24;1.23;;;0.98;;
40601;SDS011;26310;50.278;19.032;2023-06-04T14:10:29;4.45;;;1.30;;
40601;SDS011;26310;50.278;19.032;2023-06-04T14:15:32;2.30;;;1.35;;
40601;SDS011;26310;50.278;19.032;2023-06-04T14:20:35;2.20;;;1.30;;
40601;SDS011;26310;50.278;19.032;2023-06-04T14:25:38;2.63;;;1.50;;
40601;SDS011;26310;50.278;19.032;2023-06-04T14:30:41;1.65;;;1.20;;
40601;SDS011;26310;50.278;19.032;2023-06-04T14:35:44;3.88;;;1.50;;
40601;SDS011;26310;50.278;19.032;2023-06-04T14:40:49;2.90;;;1.42;;
40601;SDS011;26310;50.278;19.032;2023-06-04T14:45:52;1.58;;;1.27;;
40601;SDS011;26310;50.278;19.032;2023-06-04T14:50:55;3.13;;;1.70;;
40601;SDS011;26310;50.278;19.032;2023-06-04T14:55:58;1.65;;;1.20;;
40601;SDS011;26310;50.278;19.032;2023-06-04T15:01:01;2.15;;;1.40;;
40601;SDS011;26310;50.278;19.032;2023-06-04T15:06:06;1.65;;;1.30;;
40601;SDS011;26310;50.278;19.032;2023-06-04T15:11:20;3.30;;;1.35;;
40601;SDS011;26310;50.278;19.032;2023-06-04T15:16:23;4.43;;;1.60;;
40601;SDS011;26310;50.278;19.032;2023-06-04T15:21:27;3.55;;;1.50;;
40601;SDS011;26310;50.278;19.032;2023-06-04T15:26:30;1.80;;;1.20;;
40601;SDS011;26310;50.278;19.032;2023-06-04T15:31:33;4.35;;;1.40;;
40601;SDS011;26310;50.278;19.032;2023-06-04T15:36:36;2.25;;;1.20;;
40601;SDS011;26310;50.278;19.032;2023-06-04T15:41:40;3.60;;;1.60;;
40601;SDS011;26310;50.278;19.032;2023-06-04T15:46:43;1.88;;;1.15;;
40601;SDS011;26310;50.278;19.032;2023-06-04T15:51:46;2.85;;;1.30;;
40601;SDS011;26310;50.278;19.032;2023-06-04T15:56:49;2.38;;;1.30;;
40601;SDS011;26310;50.278;19.032;2023-06-04T16:01:52;2.25;;;1.63;;
40601;SDS011;26310;50.278;19.032;2023-06-04T16:06:55;4.00;;;1.33;;
40601;SDS011;26310;50.278;19.032;2023-06-04T16:11:58;2.08;;;1.13;;
40601;SDS011;26310;50.278;19.032;2023-06-04T16:17:02;2.55;;;1.65;;
40601;SDS011;26310;50.278;19.032;2023-06-04T16:22:06;1.95;;;1.25;;
40601;SDS011;26310;50.278;19.032;2023-06-04T16:27:09;2.53;;;1.42;;
40601;SDS011;26310;50.278;19.032;2023-06-04T16:32:12;1.23;;;1.08;;
40601;SDS011;26310;50.278;19.032;2023-06-04T16:37:15;4.32;;;1.33;;
40601;SDS011;26310;50.278;19.032;2023-06-04T16:42:19;2.00;;;1.17;;
40601;SDS011;26310;50.278;19.032;2023-06-04T16:47:22;2.20;;;1.38;;
40601;SDS011;26310;50.278;19.032;2023-06-04T16:52:26;2.30;;;1.50;;
40601;SDS011;26310;50.278;19.032;2023-06-04T16:57:30;2.78;;;1.30;;
40601;SDS011;26310;50.278;19.032;2023-06-04T17:02:34;2.00;;;1.15;;
40601;SDS011;26310;50.278;19.032;2023-06-04T17:07:38;1.30;;;1.05;;
40601;SDS011;26310;50.278;19.032;2023-06-04T17:12:41;2.65;;;1.10;;
40601;SDS011;26310;50.278;19.032;2023-06-04T17:17:44;1.70;;;1.15;;
40601;SDS011;26310;50.278;19.032;2023-06-04T17:22:51;2.15;;;1.00;;
40601;SDS011;26310;50.278;19.032;2023-06-04T17:27:55;2.00;;;1.20;;
40601;SDS011;26310;50.278;19.032;2023-06-04T17:33:02;3.40;;;1.77;;
40601;SDS011;26310;50.278;19.032;2023-06-04T17:38:06;1.88;;;1.38;;
40601;SDS011;26310;50.278;19.032;2023-06-04T17:43:09;4.68;;;1.77;;
40601;SDS011;26310;50.278;19.032;2023-06-04T17:48:12;2.17;;;1.40;;
40601;SDS011;26310;50.278;19.032;2023-06-04T17:53:16;3.90;;;1.80;;
40601;SDS011;26310;50.278;19.032;2023-06-04T17:58:19;4.20;;;1.60;;
40601;SDS011;26310;50.278;19.032;2023-06-04T18:03:23;2.88;;;1.75;;
40601;SDS011;26310;50.278;19.032;2023-06-04T18:08:26;2.47;;;1.55;;
40601;SDS011;26310;50.278;19.032;2023-06-04T18:13:30;3.58;;;1.48;;
40601;SDS011;26310;50.278;19.032;2023-06-04T18:18:33;2.20;;;1.40;;
40601;SDS011;26310;50.278;19.032;2023-06-04T18:23:37;1.60;;;1.00;;
40601;SDS011;26310;50.278;19.032;2023-06-04T18:28:41;4.43;;;1.30;;
40601;SDS011;26310;50.278;19.032;2023-06-04T18:33:49;1.48;;;1.23;;
40601;SDS011;26310;50.278;19.032;2023-06-04T18:38:53;3.90;;;1.45;;
40601;SDS011;26310;50.278;19.032;2023-06-04T18:43:56;1.85;;;1.10;;
40601;SDS011;26310;50.278;19.032;2023-06-04T18:48:59;1.63;;;1.38;;
40601;SDS011;26310;50.278;19.032;2023-06-04T18:54:04;3.30;;;1.30;;
40601;SDS011;26310;50.278;19.032;2023-06-04T18:59:10;2.63;;;1.50;;
40601;SDS011;26310;50.278;19.032;2023-06-04T19:04:14;2.35;;;1.60;;
40601;SDS011;26310;50.278;19.032;2023-06-04T19:09:17;4.18;;;1.20;;
40601;SDS011;26310;50.278;19.032;2023-06-04T19:14:21;2.50;;;1.58;;
40601;SDS011;26310;50.278;19.032;2023-06-04T19:19:24;3.40;;;1.30;;
40601;SDS011;26310;50.278;19.032;2023-06-04T19:24:28;2.70;;;1.55;;
40601;SDS011;26310;50.278;19.032;2023-06-04T19:29:32;6.28;;;1.60;;
40601;SDS011;26310;50.278;19.032;2023-06-04T19:34:36;3.70;;;1.60;;
40601;SDS011;26310;50.278;19.032;2023-06-04T19:39:39;1.83;;;1.47;;
40601;SDS011;26310;50.278;19.032;2023-06-04T19:44:42;2.60;;;1.37;;
40601;SDS011;26310;50.278;19.032;2023-06-04T19:49:46;4.35;;;2.00;;
40601;SDS011;26310;50.278;19.032;2023-06-04T19:54:49;9.50;;;2.50;;
40601;SDS011;26310;50.278;19.032;2023-06-04T19:59:53;2.60;;;1.80;;
40601;SDS011;26310;50.278;19.032;2023-06-04T20:04:58;8.53;;;2.60;;
40601;SDS011;26310;50.278;19.032;2023-06-04T20:10:02;2.73;;;2.00;;
40601;SDS011;26310;50.278;19.032;2023-06-04T20:15:05;2.97;;;1.80;;
40601;SDS011;26310;50.278;19.032;2023-06-04T20:20:09;4.27;;;1.93;;
40601;SDS011;26310;50.278;19.032;2023-06-04T20:25:13;3.40;;;1.97;;
40601;SDS011;26310;50.278;19.032;2023-06-04T20:30:17;3.40;;;2.13;;
40601;SDS011;26310;50.278;19.032;2023-06-04T20:35:20;2.97;;;1.93;;
40601;SDS011;26310;50.278;19.032;2023-06-04T20:40:24;5.20;;;1.70;;
40601;SDS011;26310;50.278;19.032;2023-06-04T20:45:27;1.77;;;1.17;;
40601;SDS011;26310;50.278;19.032;2023-06-04T20:50:30;4.33;;;1.40;;
40601;SDS011;26310;50.278;19.032;2023-06-04T20:55:34;3.17;;;1.87;;
40601;SDS011;26310;50.278;19.032;2023-06-04T21:00:37;3.93;;;2.00;;
40601;SDS011;26310;50.278;19.032;2023-06-04T21:05:40;2.60;;;1.20;;
40601;SDS011;26310;50.278;19.032;2023-06-04T21:10:43;4.63;;;1.60;;
40601;SDS011;26310;50.278;19.032;2023-06-04T21:15:46;5.60;;;1.77;;
40601;SDS011;26310;50.278;19.032;2023-06-04T21:20:49;4.73;;;1.93;;
40601;SDS011;26310;50.278;19.032;2023-06-04T21:25:54;5.67;;;2.30;;
40601;SDS011;26310;50.278;19.032;2023-06-04T21:30:57;7.23;;;2.00;;
40601;SDS011;26310;50.278;19.032;2023-06-04T21:36:00;2.40;;;1.70;;
40601;SDS011;26310;50.278;19.032;2023-06-04T21:41:03;4.63;;;1.93;;
40601;SDS011;26310;50.278;19.032;2023-06-04T21:46:06;3.00;;;1.87;;
40601;SDS011;26310;50.278;19.032;2023-06-04T21:51:09;5.23;;;1.87;;
40601;SDS011;26310;50.278;19.032;2023-06-04T21:56:12;3.50;;;2.00;;
40601;SDS011;26310;50.278;19.032;2023-06-04T22:01:15;4.73;;;2.33;;
40601;SDS011;26310;50.278;19.032;2023-06-04T22:06:18;4.20;;;1.77;;
40601;SDS011;26310;50.278;19.032;2023-06-04T22:11:21;4.43;;;1.70;;
40601;SDS011;26310;50.278;19.032;2023-06-04T22:16:24;5.03;;;1.57;;
40601;SDS011;26310;50.278;19.032;2023-06-04T22:21:27;5.43;;;1.67;;
40601;SDS011;26310;50.278;19.032;2023-06-04T22:26:30;2.50;;;1.70;;
40601;SDS011;26310;50.278;19.032;2023-06-04T22:31:39;5.03;;;1.80;;
40601;SDS011;26310;50.278;19.032;2023-06-04T22:36:42;3.40;;;1.87;;
40601;SDS011;26310;50.278;19.032;2023-06-04T22:41:46;7.53;;;1.77;;
40601;SDS011;26310;50.278;19.032;2023-06-04T22:46:49;5.87;;;2.00;;
40601;SDS011;26310;50.278;19.032;2023-06-04T22:51:52;2.13;;;1.57;;
40601;SDS011;26310;50.278;19.032;2023-06-04T22:56:55;2.77;;;2.00;;
40601;SDS011;26310;50.278;19.032;2023-06-04T23:01:58;5.83;;;2.30;;
40601;SDS011;26310;50.278;19.032;2023-06-04T23:07:02;3.13;;;1.73;;
40601;SDS011;26310;50.278;19.032;2023-06-04T23:12:05;4.50;;;2.03;;
40601;SDS011;26310;50.278;19.032;2023-06-04T23:17:08;3.67;;;2.20;;
40601;SDS011;26310;50.278;19.032;2023-06-04T23:22:11;4.07;;;2.30;;
40601;SDS011;26310;50.278;19.032;2023-06-04T23:27:15;5.33;;;2.50;;
40601;SDS011;26310;50.278;19.032;2023-06-04T23:32:18;5.30;;;2.50;;
40601;SDS011;26310;50.278;19.032;2023-06-04T23:37:21;5.50;;;2.70;;
40601;SDS011;26310;50.278;19.032;2023-06-04T23:42:24;5.00;;;2.60;;
40601;SDS011;26310;50.278;19.032;2023-06-04T23:47:27;4.13;;;2.30;;
40601;SDS011;26310;50.278;19.032;2023-06-04T23:52:30;3.37;;;1.90;;
40601;SDS011;26310;50.278;19.032;2023-06-04T23:57:33;5.03;;;2.63;;
